sensor_id;sensor_type;location;lat;lon;timestamp;temperature;humidity
23783;DHT22;12071;50.850;4.446;2022-12-07T00:01:33;6.30;4.50
23783;DHT22;12071;50.850;4.446;2022-12-07T00:04:03;6.60;6.20
23783;DHT22;12071;50.850;4.446;2022-12-07T00:06:36;6.50;1.00
23783;DHT22;12071;50.850;4.446;2022-12-07T00:09:04;6.50;2.60
23783;DHT22;12071;50.850;4.446;2022-12-07T00:11:30;6.40;1.00
23783;DHT22;12071;50.850;4.446;2022-12-07T00:13:58;6.30;1.00
23783;DHT22;12071;50.850;4.446;2022-12-07T00:16:27;6.10;4.50
23783;DHT22;12071;50.850;4.446;2022-12-07T00:18:54;6.00;8.20
23783;DHT22;12071;50.850;4.446;2022-12-07T00:21:25;6.00;14.90
23783;DHT22;12071;50.850;4.446;2022-12-07T00:23:52;6.00;15.10
23783;DHT22;12071;50.850;4.446;2022-12-07T00:26:21;5.80;17.10
23783;DHT22;12071;50.850;4.446;2022-12-07T00:28:48;5.90;20.60
23783;DHT22;12071;50.850;4.446;2022-12-07T00:31:16;5.90;19.80
23783;DHT22;12071;50.850;4.446;2022-12-07T00:33:42;5.80;21.10
23783;DHT22;12071;50.850;4.446;2022-12-07T00:36:11;5.90;23.90
23783;DHT22;12071;50.850;4.446;2022-12-07T00:38:38;5.90;22.40
23783;DHT22;12071;50.850;4.446;2022-12-07T00:41:07;5.90;21.90
23783;DHT22;12071;50.850;4.446;2022-12-07T00:43:33;6.00;22.70
23783;DHT22;12071;50.850;4.446;2022-12-07T00:45:59;6.10;21.00
23783;DHT22;12071;50.850;4.446;2022-12-07T00:48:25;6.00;14.70
23783;DHT22;12071;50.850;4.446;2022-12-07T00:50:51;6.10;15.20
23783;DHT22;12071;50.850;4.446;2022-12-07T00:53:17;6.00;12.80
23783;DHT22;12071;50.850;4.446;2022-12-07T00:55:43;6.10;11.30
23783;DHT22;12071;50.850;4.446;2022-12-07T00:58:09;5.90;8.90
23783;DHT22;12071;50.850;4.446;2022-12-07T01:00:36;5.80;12.60
23783;DHT22;12071;50.850;4.446;2022-12-07T01:03:02;5.60;16.70
23783;DHT22;12071;50.850;4.446;2022-12-07T01:05:28;5.60;21.50
23783;DHT22;12071;50.850;4.446;2022-12-07T01:07:53;5.70;23.00
23783;DHT22;12071;50.850;4.446;2022-12-07T01:10:19;5.80;22.60
23783;DHT22;12071;50.850;4.446;2022-12-07T01:12:44;5.50;22.80
23783;DHT22;12071;50.850;4.446;2022-12-07T01:15:10;5.50;27.60
23783;DHT22;12071;50.850;4.446;2022-12-07T01:17:36;5.50;31.10
23783;DHT22;12071;50.850;4.446;2022-12-07T01:20:02;5.50;34.70
23783;DHT22;12071;50.850;4.446;2022-12-07T01:22:28;5.50;33.70
23783;DHT22;12071;50.850;4.446;2022-12-07T01:24:53;5.60;33.00
23783;DHT22;12071;50.850;4.446;2022-12-07T01:27:19;5.70;31.50
23783;DHT22;12071;50.850;4.446;2022-12-07T01:29:44;5.50;30.00
23783;DHT22;12071;50.850;4.446;2022-12-07T01:32:10;5.50;33.10
23783;DHT22;12071;50.850;4.446;2022-12-07T01:34:36;5.40;37.00
23783;DHT22;12071;50.850;4.446;2022-12-07T01:37:02;5.30;39.20
23783;DHT22;12071;50.850;4.446;2022-12-07T01:39:29;5.40;44.80
23783;DHT22;12071;50.850;4.446;2022-12-07T01:41:54;5.50;45.80
23783;DHT22;12071;50.850;4.446;2022-12-07T01:44:28;5.80;43.80
23783;DHT22;12071;50.850;4.446;2022-12-07T01:46:57;5.70;37.00
23783;DHT22;12071;50.850;4.446;2022-12-07T01:49:37;5.80;35.90
23783;DHT22;12071;50.850;4.446;2022-12-07T01:54:50;6.00;33.20
23783;DHT22;12071;50.850;4.446;2022-12-07T01:57:17;6.10;22.70
23783;DHT22;12071;50.850;4.446;2022-12-07T01:59:44;6.00;18.00
23783;DHT22;12071;50.850;4.446;2022-12-07T02:02:29;5.70;18.40
23783;DHT22;12071;50.850;4.446;2022-12-07T02:04:57;5.80;22.50
23783;DHT22;12071;50.850;4.446;2022-12-07T02:07:25;5.90;27.90
23783;DHT22;12071;50.850;4.446;2022-12-07T02:09:52;5.90;24.00
23783;DHT22;12071;50.850;4.446;2022-12-07T02:12:18;5.80;21.80
23783;DHT22;12071;50.850;4.446;2022-12-07T02:14:44;5.80;25.90
23783;DHT22;12071;50.850;4.446;2022-12-07T02:17:30;6.10;23.50
23783;DHT22;12071;50.850;4.446;2022-12-07T02:22:38;6.00;14.10
23783;DHT22;12071;50.850;4.446;2022-12-07T02:30:45;6.20;27.90
23783;DHT22;12071;50.850;4.446;2022-12-07T02:33:28;6.30;24.60
23783;DHT22;12071;50.850;4.446;2022-12-07T02:38:35;6.60;14.80
23783;DHT22;12071;50.850;4.446;2022-12-07T02:41:13;6.50;16.10
23783;DHT22;12071;50.850;4.446;2022-12-07T02:43:46;6.70;6.60
23783;DHT22;12071;50.850;4.446;2022-12-07T02:46:20;6.50;1.00
23783;DHT22;12071;50.850;4.446;2022-12-07T02:48:46;6.60;1.00
23783;DHT22;12071;50.850;4.446;2022-12-07T02:51:12;6.70;1.00
23783;DHT22;12071;50.850;4.446;2022-12-07T02:53:40;6.80;1.00
23783;DHT22;12071;50.850;4.446;2022-12-07T03:10:18;6.10;1.00
23783;DHT22;12071;50.850;4.446;2022-12-07T03:18:11;6.10;1.00
23783;DHT22;12071;50.850;4.446;2022-12-07T03:20:39;6.10;1.00
23783;DHT22;12071;50.850;4.446;2022-12-07T03:23:07;5.90;1.00
23783;DHT22;12071;50.850;4.446;2022-12-07T03:25:38;5.70;1.00
23783;DHT22;12071;50.850;4.446;2022-12-07T03:28:06;5.60;1.00
23783;DHT22;12071;50.850;4.446;2022-12-07T03:30:46;5.60;1.00
23783;DHT22;12071;50.850;4.446;2022-12-07T03:33:24;5.70;1.00
23783;DHT22;12071;50.850;4.446;2022-12-07T03:36:01;5.60;4.30
23783;DHT22;12071;50.850;4.446;2022-12-07T03:38:48;5.90;5.30
23783;DHT22;12071;50.850;4.446;2022-12-07T03:41:23;5.80;1.00
23783;DHT22;12071;50.850;4.446;2022-12-07T03:43:49;6.00;1.00
23783;DHT22;12071;50.850;4.446;2022-12-07T03:46:37;5.60;1.00
23783;DHT22;12071;50.850;4.446;2022-12-07T03:49:16;5.70;4.20
23783;DHT22;12071;50.850;4.446;2022-12-07T03:51:55;5.80;1.00
23783;DHT22;12071;50.850;4.446;2022-12-07T03:54:48;6.10;1.00
23783;DHT22;12071;50.850;4.446;2022-12-07T03:57:15;6.20;1.00
23783;DHT22;12071;50.850;4.446;2022-12-07T03:59:41;5.90;1.00
23783;DHT22;12071;50.850;4.446;2022-12-07T04:02:11;5.60;1.00
23783;DHT22;12071;50.850;4.446;2022-12-07T04:04:38;5.70;1.00
23783;DHT22;12071;50.850;4.446;2022-12-07T04:07:03;5.60;1.00
23783;DHT22;12071;50.850;4.446;2022-12-07T04:09:29;5.70;1.00
23783;DHT22;12071;50.850;4.446;2022-12-07T04:11:55;5.60;1.00
23783;DHT22;12071;50.850;4.446;2022-12-07T04:14:20;5.50;1.00
23783;DHT22;12071;50.850;4.446;2022-12-07T04:16:50;5.30;1.00
23783;DHT22;12071;50.850;4.446;2022-12-07T04:19:18;5.40;1.00
23783;DHT22;12071;50.850;4.446;2022-12-07T04:21:44;5.20;1.00
23783;DHT22;12071;50.850;4.446;2022-12-07T04:24:11;5.20;1.00
23783;DHT22;12071;50.850;4.446;2022-12-07T04:26:38;5.40;1.00
23783;DHT22;12071;50.850;4.446;2022-12-07T04:29:04;5.40;1.00
23783;DHT22;12071;50.850;4.446;2022-12-07T04:31:30;5.20;1.00
23783;DHT22;12071;50.850;4.446;2022-12-07T04:33:56;5.10;1.00
23783;DHT22;12071;50.850;4.446;2022-12-07T04:36:21;5.20;1.00
23783;DHT22;12071;50.850;4.446;2022-12-07T04:38:47;5.10;1.00
23783;DHT22;12071;50.850;4.446;2022-12-07T04:41:13;5.20;1.00
23783;DHT22;12071;50.850;4.446;2022-12-07T04:43:38;5.30;1.20
23783;DHT22;12071;50.850;4.446;2022-12-07T04:46:04;5.20;1.00
23783;DHT22;12071;50.850;4.446;2022-12-07T04:48:30;5.30;3.20
23783;DHT22;12071;50.850;4.446;2022-12-07T04:50:56;5.10;1.90
23783;DHT22;12071;50.850;4.446;2022-12-07T04:53:21;5.30;7.80
23783;DHT22;12071;50.850;4.446;2022-12-07T04:55:47;5.00;9.10
23783;DHT22;12071;50.850;4.446;2022-12-07T04:58:13;5.10;19.50
23783;DHT22;12071;50.850;4.446;2022-12-07T05:00:39;5.30;20.10
23783;DHT22;12071;50.850;4.446;2022-12-07T05:03:06;5.10;16.90
23783;DHT22;12071;50.850;4.446;2022-12-07T05:05:31;5.20;23.10
23783;DHT22;12071;50.850;4.446;2022-12-07T05:07:57;5.40;23.50
23783;DHT22;12071;50.850;4.446;2022-12-07T05:10:23;5.50;19.30
23783;DHT22;12071;50.850;4.446;2022-12-07T05:12:48;5.60;10.50
23783;DHT22;12071;50.850;4.446;2022-12-07T05:15:14;5.30;7.70
23783;DHT22;12071;50.850;4.446;2022-12-07T05:17:40;5.20;17.70
23783;DHT22;12071;50.850;4.446;2022-12-07T05:20:07;5.30;19.70
23783;DHT22;12071;50.850;4.446;2022-12-07T05:22:33;5.30;19.70
23783;DHT22;12071;50.850;4.446;2022-12-07T05:25:02;5.40;18.70
23783;DHT22;12071;50.850;4.446;2022-12-07T05:27:28;5.40;17.60
23783;DHT22;12071;50.850;4.446;2022-12-07T05:29:54;5.40;15.90
23783;DHT22;12071;50.850;4.446;2022-12-07T05:32:21;5.60;16.00
23783;DHT22;12071;50.850;4.446;2022-12-07T05:34:46;5.60;11.80
23783;DHT22;12071;50.850;4.446;2022-12-07T05:37:12;5.50;11.40
23783;DHT22;12071;50.850;4.446;2022-12-07T05:39:37;5.60;14.80
23783;DHT22;12071;50.850;4.446;2022-12-07T05:42:06;5.80;14.60
23783;DHT22;12071;50.850;4.446;2022-12-07T05:44:42;5.90;8.00
23783;DHT22;12071;50.850;4.446;2022-12-07T05:47:09;5.70;4.50
23783;DHT22;12071;50.850;4.446;2022-12-07T05:49:35;5.70;8.60
23783;DHT22;12071;50.850;4.446;2022-12-07T05:52:00;5.50;10.60
23783;DHT22;12071;50.850;4.446;2022-12-07T05:54:26;5.40;17.10
23783;DHT22;12071;50.850;4.446;2022-12-07T05:56:52;5.40;20.50
23783;DHT22;12071;50.850;4.446;2022-12-07T05:59:17;5.30;22.60
23783;DHT22;12071;50.850;4.446;2022-12-07T06:01:54;5.20;24.40
23783;DHT22;12071;50.850;4.446;2022-12-07T06:04:20;5.30;25.40
23783;DHT22;12071;50.850;4.446;2022-12-07T06:06:47;5.30;27.10
23783;DHT22;12071;50.850;4.446;2022-12-07T06:09:14;5.50;29.90
23783;DHT22;12071;50.850;4.446;2022-12-07T06:11:40;5.60;27.30
23783;DHT22;12071;50.850;4.446;2022-12-07T06:14:24;5.80;23.90
23783;DHT22;12071;50.850;4.446;2022-12-07T06:16:50;5.80;13.90
23783;DHT22;12071;50.850;4.446;2022-12-07T06:19:16;5.60;12.80
23783;DHT22;12071;50.850;4.446;2022-12-07T06:21:41;5.40;21.30
23783;DHT22;12071;50.850;4.446;2022-12-07T06:24:08;5.30;24.70
23783;DHT22;12071;50.850;4.446;2022-12-07T06:26:34;5.40;27.50
23783;DHT22;12071;50.850;4.446;2022-12-07T06:29:00;5.30;29.80
23783;DHT22;12071;50.850;4.446;2022-12-07T06:31:25;5.50;33.90
23783;DHT22;12071;50.850;4.446;2022-12-07T06:33:51;5.40;28.50
23783;DHT22;12071;50.850;4.446;2022-12-07T06:36:16;5.60;27.00
23783;DHT22;12071;50.850;4.446;2022-12-07T06:38:42;5.50;26.90
23783;DHT22;12071;50.850;4.446;2022-12-07T06:41:08;5.50;28.00
23783;DHT22;12071;50.850;4.446;2022-12-07T06:43:33;5.80;25.00
23783;DHT22;12071;50.850;4.446;2022-12-07T06:45:59;5.80;19.80
23783;DHT22;12071;50.850;4.446;2022-12-07T06:48:25;6.00;18.60
23783;DHT22;12071;50.850;4.446;2022-12-07T06:50:50;6.30;6.20
23783;DHT22;12071;50.850;4.446;2022-12-07T06:53:16;6.40;1.00
23783;DHT22;12071;50.850;4.446;2022-12-07T06:55:42;6.20;1.00
23783;DHT22;12071;50.850;4.446;2022-12-07T06:58:08;6.20;1.00
23783;DHT22;12071;50.850;4.446;2022-12-07T07:00:33;5.90;1.00
23783;DHT22;12071;50.850;4.446;2022-12-07T07:03:01;5.90;2.10
23783;DHT22;12071;50.850;4.446;2022-12-07T07:05:26;6.00;8.60
23783;DHT22;12071;50.850;4.446;2022-12-07T07:07:52;6.10;6.30
23783;DHT22;12071;50.850;4.446;2022-12-07T07:10:17;6.10;9.10
23783;DHT22;12071;50.850;4.446;2022-12-07T07:12:43;6.10;1.00
23783;DHT22;12071;50.850;4.446;2022-12-07T07:15:09;6.30;1.60
23783;DHT22;12071;50.850;4.446;2022-12-07T07:17:38;6.30;1.00
23783;DHT22;12071;50.850;4.446;2022-12-07T07:20:04;6.00;1.00
23783;DHT22;12071;50.850;4.446;2022-12-07T07:22:30;6.00;1.00
23783;DHT22;12071;50.850;4.446;2022-12-07T07:24:57;5.90;1.00
23783;DHT22;12071;50.850;4.446;2022-12-07T07:27:22;5.80;5.30
23783;DHT22;12071;50.850;4.446;2022-12-07T07:29:48;6.00;1.00
23783;DHT22;12071;50.850;4.446;2022-12-07T07:32:14;6.30;1.00
23783;DHT22;12071;50.850;4.446;2022-12-07T07:34:39;6.10;1.00
23783;DHT22;12071;50.850;4.446;2022-12-07T07:37:07;6.00;1.00
23783;DHT22;12071;50.850;4.446;2022-12-07T07:39:32;5.90;1.00
23783;DHT22;12071;50.850;4.446;2022-12-07T07:41:58;5.60;1.00
23783;DHT22;12071;50.850;4.446;2022-12-07T07:44:23;5.80;2.50
23783;DHT22;12071;50.850;4.446;2022-12-07T07:46:49;5.70;1.00
23783;DHT22;12071;50.850;4.446;2022-12-07T07:49:14;5.80;1.70
23783;DHT22;12071;50.850;4.446;2022-12-07T07:51:40;5.90;1.00
23783;DHT22;12071;50.850;4.446;2022-12-07T07:54:06;5.80;1.00
23783;DHT22;12071;50.850;4.446;2022-12-07T07:56:31;5.80;1.00
23783;DHT22;12071;50.850;4.446;2022-12-07T07:58:57;5.90;1.00
23783;DHT22;12071;50.850;4.446;2022-12-07T08:01:22;5.90;1.00
23783;DHT22;12071;50.850;4.446;2022-12-07T08:03:48;5.80;1.00
23783;DHT22;12071;50.850;4.446;2022-12-07T08:06:14;5.50;1.00
23783;DHT22;12071;50.850;4.446;2022-12-07T08:08:39;5.60;1.00
23783;DHT22;12071;50.850;4.446;2022-12-07T08:11:06;5.60;1.00
23783;DHT22;12071;50.850;4.446;2022-12-07T08:13:31;5.40;3.20
23783;DHT22;12071;50.850;4.446;2022-12-07T08:15:57;5.60;4.80
23783;DHT22;12071;50.850;4.446;2022-12-07T08:18:23;5.50;4.30
23783;DHT22;12071;50.850;4.446;2022-12-07T08:20:49;5.80;1.00
23783;DHT22;12071;50.850;4.446;2022-12-07T08:23:14;5.80;1.00
23783;DHT22;12071;50.850;4.446;2022-12-07T08:25:40;5.90;1.00
23783;DHT22;12071;50.850;4.446;2022-12-07T08:28:06;5.90;1.00
23783;DHT22;12071;50.850;4.446;2022-12-07T08:30:32;5.80;1.00
23783;DHT22;12071;50.850;4.446;2022-12-07T08:32:58;5.90;1.00
23783;DHT22;12071;50.850;4.446;2022-12-07T08:35:25;5.90;1.00
23783;DHT22;12071;50.850;4.446;2022-12-07T08:37:51;5.80;1.00
23783;DHT22;12071;50.850;4.446;2022-12-07T08:40:17;5.70;1.00
23783;DHT22;12071;50.850;4.446;2022-12-07T08:42:48;5.70;1.00
23783;DHT22;12071;50.850;4.446;2022-12-07T08:45:15;5.70;1.00
23783;DHT22;12071;50.850;4.446;2022-12-07T08:47:45;5.70;1.00
23783;DHT22;12071;50.850;4.446;2022-12-07T08:50:12;5.80;1.50
23783;DHT22;12071;50.850;4.446;2022-12-07T08:52:40;5.80;3.40
23783;DHT22;12071;50.850;4.446;2022-12-07T08:55:07;5.90;3.80
23783;DHT22;12071;50.850;4.446;2022-12-07T08:57:35;6.10;6.70
23783;DHT22;12071;50.850;4.446;2022-12-07T09:00:03;6.30;4.20
23783;DHT22;12071;50.850;4.446;2022-12-07T09:02:30;6.40;1.30
23783;DHT22;12071;50.850;4.446;2022-12-07T09:04:56;6.60;1.00
23783;DHT22;12071;50.850;4.446;2022-12-07T09:07:22;6.60;1.00
23783;DHT22;12071;50.850;4.446;2022-12-07T09:09:47;6.50;1.00
23783;DHT22;12071;50.850;4.446;2022-12-07T09:12:13;6.70;1.00
23783;DHT22;12071;50.850;4.446;2022-12-07T09:14:39;6.90;1.00
23783;DHT22;12071;50.850;4.446;2022-12-07T09:17:06;6.80;1.00
23783;DHT22;12071;50.850;4.446;2022-12-07T09:19:32;7.00;1.00
23783;DHT22;12071;50.850;4.446;2022-12-07T09:21:58;6.80;1.00
23783;DHT22;12071;50.850;4.446;2022-12-07T09:24:23;6.90;1.00
23783;DHT22;12071;50.850;4.446;2022-12-07T09:26:49;7.00;1.00
23783;DHT22;12071;50.850;4.446;2022-12-07T09:29:14;7.10;1.00
23783;DHT22;12071;50.850;4.446;2022-12-07T09:31:40;7.20;1.00
23783;DHT22;12071;50.850;4.446;2022-12-07T09:34:06;7.10;1.00
23783;DHT22;12071;50.850;4.446;2022-12-07T09:36:32;7.20;1.00
23783;DHT22;12071;50.850;4.446;2022-12-07T09:39:00;7.10;1.00
23783;DHT22;12071;50.850;4.446;2022-12-07T09:41:27;7.30;1.00
23783;DHT22;12071;50.850;4.446;2022-12-07T09:44:05;7.30;1.00
23783;DHT22;12071;50.850;4.446;2022-12-07T09:46:38;7.40;1.00
23783;DHT22;12071;50.850;4.446;2022-12-07T09:49:05;7.40;1.00
23783;DHT22;12071;50.850;4.446;2022-12-07T09:51:34;7.20;1.00
23783;DHT22;12071;50.850;4.446;2022-12-07T09:54:00;7.00;1.00
23783;DHT22;12071;50.850;4.446;2022-12-07T09:56:29;7.20;1.00
23783;DHT22;12071;50.850;4.446;2022-12-07T09:59:00;7.10;1.00
23783;DHT22;12071;50.850;4.446;2022-12-07T10:01:29;7.10;1.00
23783;DHT22;12071;50.850;4.446;2022-12-07T10:04:12;7.00;1.00
23783;DHT22;12071;50.850;4.446;2022-12-07T10:06:39;7.00;1.00
23783;DHT22;12071;50.850;4.446;2022-12-07T10:09:12;6.80;1.00
23783;DHT22;12071;50.850;4.446;2022-12-07T10:12:08;6.80;1.00
23783;DHT22;12071;50.850;4.446;2022-12-07T10:14:37;7.00;1.00
23783;DHT22;12071;50.850;4.446;2022-12-07T10:23:04;7.60;1.00
23783;DHT22;12071;50.850;4.446;2022-12-07T10:25:35;7.60;1.00
23783;DHT22;12071;50.850;4.446;2022-12-07T10:28:18;7.60;1.00
23783;DHT22;12071;50.850;4.446;2022-12-07T10:30:48;7.80;1.00
23783;DHT22;12071;50.850;4.446;2022-12-07T10:33:36;7.70;1.00
23783;DHT22;12071;50.850;4.446;2022-12-07T10:36:24;7.20;1.00
23783;DHT22;12071;50.850;4.446;2022-12-07T10:39:00;7.40;1.00
23783;DHT22;12071;50.850;4.446;2022-12-07T10:41:26;7.40;1.00
23783;DHT22;12071;50.850;4.446;2022-12-07T10:43:54;7.50;1.00
23783;DHT22;12071;50.850;4.446;2022-12-07T10:46:52;7.30;1.00
23783;DHT22;12071;50.850;4.446;2022-12-07T10:52:42;7.50;1.00
23783;DHT22;12071;50.850;4.446;2022-12-07T11:18:26;7.60;1.00
23783;DHT22;12071;50.850;4.446;2022-12-07T11:24:48;7.20;1.00
23783;DHT22;12071;50.850;4.446;2022-12-07T11:27:40;7.00;1.00
23783;DHT22;12071;50.850;4.446;2022-12-07T11:32:59;6.90;1.00
23783;DHT22;12071;50.850;4.446;2022-12-07T11:38:20;7.00;1.00
23783;DHT22;12071;50.850;4.446;2022-12-07T11:40:51;6.90;1.00
23783;DHT22;12071;50.850;4.446;2022-12-07T11:43:28;6.80;1.00
23783;DHT22;12071;50.850;4.446;2022-12-07T11:48:33;6.90;1.00
23783;DHT22;12071;50.850;4.446;2022-12-07T11:51:02;7.20;1.00
23783;DHT22;12071;50.850;4.446;2022-12-07T11:53:37;7.50;1.00
23783;DHT22;12071;50.850;4.446;2022-12-07T11:56:15;7.40;1.00
23783;DHT22;12071;50.850;4.446;2022-12-07T12:06:39;7.60;1.00
23783;DHT22;12071;50.850;4.446;2022-12-07T12:09:21;7.60;1.00
23783;DHT22;12071;50.850;4.446;2022-12-07T12:20:37;8.40;1.00
23783;DHT22;12071;50.850;4.446;2022-12-07T12:25:50;8.10;1.00
23783;DHT22;12071;50.850;4.446;2022-12-07T12:28:28;8.00;99.90
23783;DHT22;12071;50.850;4.446;2022-12-07T12:33:58;8.30;99.90
23783;DHT22;12071;50.850;4.446;2022-12-07T12:39:19;8.50;99.90
23783;DHT22;12071;50.850;4.446;2022-12-07T12:49:37;8.30;99.90
23783;DHT22;12071;50.850;4.446;2022-12-07T12:57:35;8.60;99.90
23783;DHT22;12071;50.850;4.446;2022-12-07T13:02:52;8.90;99.90
23783;DHT22;12071;50.850;4.446;2022-12-07T13:05:23;8.60;99.90
23783;DHT22;12071;50.850;4.446;2022-12-07T13:07:54;8.60;99.90
23783;DHT22;12071;50.850;4.446;2022-12-07T13:34:42;8.20;99.90
23783;DHT22;12071;50.850;4.446;2022-12-07T13:39:50;8.10;99.90
23783;DHT22;12071;50.850;4.446;2022-12-07T13:42:43;8.20;99.90
23783;DHT22;12071;50.850;4.446;2022-12-07T13:45:30;8.00;99.90
23783;DHT22;12071;50.850;4.446;2022-12-07T13:48:19;8.00;99.90
23783;DHT22;12071;50.850;4.446;2022-12-07T13:50:56;7.90;99.90
23783;DHT22;12071;50.850;4.446;2022-12-07T13:53:24;8.10;99.90
23783;DHT22;12071;50.850;4.446;2022-12-07T13:55:58;8.10;99.90
23783;DHT22;12071;50.850;4.446;2022-12-07T13:58:26;8.20;99.90
23783;DHT22;12071;50.850;4.446;2022-12-07T14:00:53;8.20;99.90
23783;DHT22;12071;50.850;4.446;2022-12-07T14:03:29;8.00;99.90
23783;DHT22;12071;50.850;4.446;2022-12-07T14:08:44;8.00;99.90
23783;DHT22;12071;50.850;4.446;2022-12-07T14:11:19;7.80;99.90
23783;DHT22;12071;50.850;4.446;2022-12-07T14:13:55;7.60;99.90
23783;DHT22;12071;50.850;4.446;2022-12-07T14:16:25;7.30;99.90
23783;DHT22;12071;50.850;4.446;2022-12-07T14:18:53;7.00;1.00
23783;DHT22;12071;50.850;4.446;2022-12-07T14:21:21;6.70;1.00
23783;DHT22;12071;50.850;4.446;2022-12-07T14:24:22;6.40;1.00
23783;DHT22;12071;50.850;4.446;2022-12-07T14:26:49;6.30;1.00
23783;DHT22;12071;50.850;4.446;2022-12-07T14:31:49;6.30;9.40
23783;DHT22;12071;50.850;4.446;2022-12-07T14:34:15;6.30;17.10
23783;DHT22;12071;50.850;4.446;2022-12-07T14:36:40;6.40;21.40
23783;DHT22;12071;50.850;4.446;2022-12-07T14:39:06;6.50;26.30
23783;DHT22;12071;50.850;4.446;2022-12-07T14:41:31;6.50;25.00
23783;DHT22;12071;50.850;4.446;2022-12-07T14:44:15;6.40;23.50
23783;DHT22;12071;50.850;4.446;2022-12-07T14:46:42;6.30;23.40
23783;DHT22;12071;50.850;4.446;2022-12-07T14:49:07;6.40;27.50
23783;DHT22;12071;50.850;4.446;2022-12-07T14:51:36;6.40;27.80
23783;DHT22;12071;50.850;4.446;2022-12-07T14:54:05;6.50;30.40
23783;DHT22;12071;50.850;4.446;2022-12-07T14:56:31;6.60;27.40
23783;DHT22;12071;50.850;4.446;2022-12-07T14:58:56;6.60;26.60
23783;DHT22;12071;50.850;4.446;2022-12-07T15:01:22;6.70;23.60
23783;DHT22;12071;50.850;4.446;2022-12-07T15:03:48;6.70;17.90
23783;DHT22;12071;50.850;4.446;2022-12-07T15:06:16;6.80;12.40
23783;DHT22;12071;50.850;4.446;2022-12-07T15:08:43;6.80;6.30
23783;DHT22;12071;50.850;4.446;2022-12-07T15:11:13;6.90;7.00
23783;DHT22;12071;50.850;4.446;2022-12-07T15:13:39;6.80;1.00
23783;DHT22;12071;50.850;4.446;2022-12-07T15:16:24;6.50;1.00
23783;DHT22;12071;50.850;4.446;2022-12-07T15:18:49;6.40;1.40
23783;DHT22;12071;50.850;4.446;2022-12-07T15:21:15;6.40;4.70
23783;DHT22;12071;50.850;4.446;2022-12-07T15:23:41;6.40;1.00
23783;DHT22;12071;50.850;4.446;2022-12-07T15:26:07;6.40;1.00
23783;DHT22;12071;50.850;4.446;2022-12-07T15:28:33;6.30;1.00
23783;DHT22;12071;50.850;4.446;2022-12-07T15:30:59;6.20;1.00
23783;DHT22;12071;50.850;4.446;2022-12-07T15:33:24;6.20;3.90
23783;DHT22;12071;50.850;4.446;2022-12-07T15:35:50;6.30;10.00
23783;DHT22;12071;50.850;4.446;2022-12-07T15:38:16;6.30;11.60
23783;DHT22;12071;50.850;4.446;2022-12-07T15:40:41;6.50;6.90
23783;DHT22;12071;50.850;4.446;2022-12-07T15:43:09;6.50;6.00
23783;DHT22;12071;50.850;4.446;2022-12-07T15:45:55;6.40;1.00
23783;DHT22;12071;50.850;4.446;2022-12-07T15:48:20;6.50;1.00
23783;DHT22;12071;50.850;4.446;2022-12-07T15:50:46;6.50;1.00
23783;DHT22;12071;50.850;4.446;2022-12-07T15:53:12;6.40;1.00
23783;DHT22;12071;50.850;4.446;2022-12-07T15:55:41;6.40;1.00
23783;DHT22;12071;50.850;4.446;2022-12-07T15:58:06;6.40;1.00
23783;DHT22;12071;50.850;4.446;2022-12-07T16:00:32;6.60;1.00
23783;DHT22;12071;50.850;4.446;2022-12-07T16:02:58;6.50;1.00
23783;DHT22;12071;50.850;4.446;2022-12-07T16:05:23;6.60;1.00
23783;DHT22;12071;50.850;4.446;2022-12-07T16:07:52;6.60;1.00
23783;DHT22;12071;50.850;4.446;2022-12-07T16:10:17;6.50;1.00
23783;DHT22;12071;50.850;4.446;2022-12-07T16:12:43;6.70;1.00
23783;DHT22;12071;50.850;4.446;2022-12-07T16:15:09;6.70;1.00
23783;DHT22;12071;50.850;4.446;2022-12-07T16:17:34;6.70;1.00
23783;DHT22;12071;50.850;4.446;2022-12-07T16:20:00;6.60;1.00
23783;DHT22;12071;50.850;4.446;2022-12-07T16:22:26;6.50;1.00
23783;DHT22;12071;50.850;4.446;2022-12-07T16:24:51;6.50;1.00
23783;DHT22;12071;50.850;4.446;2022-12-07T16:27:17;6.70;1.00
23783;DHT22;12071;50.850;4.446;2022-12-07T16:29:42;6.90;1.00
23783;DHT22;12071;50.850;4.446;2022-12-07T16:32:08;6.80;1.00
23783;DHT22;12071;50.850;4.446;2022-12-07T16:34:33;6.60;1.00
23783;DHT22;12071;50.850;4.446;2022-12-07T16:36:59;6.60;1.00
23783;DHT22;12071;50.850;4.446;2022-12-07T16:39:24;6.60;1.00
23783;DHT22;12071;50.850;4.446;2022-12-07T16:41:50;6.50;1.00
23783;DHT22;12071;50.850;4.446;2022-12-07T16:44:18;6.50;1.00
23783;DHT22;12071;50.850;4.446;2022-12-07T16:46:43;6.40;1.00
23783;DHT22;12071;50.850;4.446;2022-12-07T16:49:15;6.60;1.00
23783;DHT22;12071;50.850;4.446;2022-12-07T16:51:41;6.60;1.00
23783;DHT22;12071;50.850;4.446;2022-12-07T16:54:11;6.70;1.00
23783;DHT22;12071;50.850;4.446;2022-12-07T16:56:37;6.60;1.00
23783;DHT22;12071;50.850;4.446;2022-12-07T16:59:03;6.60;1.00
23783;DHT22;12071;50.850;4.446;2022-12-07T17:01:28;6.50;1.00
23783;DHT22;12071;50.850;4.446;2022-12-07T17:03:55;6.70;1.00
23783;DHT22;12071;50.850;4.446;2022-12-07T17:06:24;6.60;1.00
23783;DHT22;12071;50.850;4.446;2022-12-07T17:08:51;6.60;1.00
23783;DHT22;12071;50.850;4.446;2022-12-07T17:13:44;6.90;1.00
23783;DHT22;12071;50.850;4.446;2022-12-07T17:16:29;6.60;1.00
23783;DHT22;12071;50.850;4.446;2022-12-07T17:18:56;6.30;1.00
23783;DHT22;12071;50.850;4.446;2022-12-07T17:21:22;6.40;1.00
23783;DHT22;12071;50.850;4.446;2022-12-07T17:23:48;6.40;1.00
23783;DHT22;12071;50.850;4.446;2022-12-07T17:26:17;6.50;1.00
23783;DHT22;12071;50.850;4.446;2022-12-07T17:28:43;6.60;1.00
23783;DHT22;12071;50.850;4.446;2022-12-07T17:31:10;6.50;1.00
23783;DHT22;12071;50.850;4.446;2022-12-07T17:33:36;6.30;1.00
23783;DHT22;12071;50.850;4.446;2022-12-07T17:36:20;6.40;1.00
23783;DHT22;12071;50.850;4.446;2022-12-07T17:38:47;6.40;1.00
23783;DHT22;12071;50.850;4.446;2022-12-07T17:41:24;6.40;1.00
23783;DHT22;12071;50.850;4.446;2022-12-07T17:44:11;6.40;1.00
23783;DHT22;12071;50.850;4.446;2022-12-07T17:46:38;6.50;1.00
23783;DHT22;12071;50.850;4.446;2022-12-07T17:49:05;6.50;1.00
23783;DHT22;12071;50.850;4.446;2022-12-07T17:51:31;6.50;1.00
23783;DHT22;12071;50.850;4.446;2022-12-07T17:54:16;6.50;1.00
23783;DHT22;12071;50.850;4.446;2022-12-07T17:56:41;6.50;1.00
23783;DHT22;12071;50.850;4.446;2022-12-07T17:59:08;6.70;1.00
23783;DHT22;12071;50.850;4.446;2022-12-07T18:01:34;6.50;1.00
23783;DHT22;12071;50.850;4.446;2022-12-07T18:03:59;6.40;1.00
23783;DHT22;12071;50.850;4.446;2022-12-07T18:06:25;6.50;1.00
23783;DHT22;12071;50.850;4.446;2022-12-07T18:08:51;6.40;1.00
23783;DHT22;12071;50.850;4.446;2022-12-07T18:11:17;6.30;1.00
23783;DHT22;12071;50.850;4.446;2022-12-07T18:13:43;6.30;1.00
23783;DHT22;12071;50.850;4.446;2022-12-07T18:16:13;6.30;1.00
23783;DHT22;12071;50.850;4.446;2022-12-07T18:18:39;6.20;1.00
23783;DHT22;12071;50.850;4.446;2022-12-07T18:21:25;6.30;1.00
23783;DHT22;12071;50.850;4.446;2022-12-07T18:23:53;6.20;1.00
23783;DHT22;12071;50.850;4.446;2022-12-07T18:26:21;6.40;1.00
23783;DHT22;12071;50.850;4.446;2022-12-07T18:28:47;6.40;1.00
23783;DHT22;12071;50.850;4.446;2022-12-07T18:31:13;6.40;1.00
23783;DHT22;12071;50.850;4.446;2022-12-07T18:33:40;6.40;1.00
23783;DHT22;12071;50.850;4.446;2022-12-07T18:36:07;6.50;1.00
23783;DHT22;12071;50.850;4.446;2022-12-07T18:38:33;6.30;1.00
23783;DHT22;12071;50.850;4.446;2022-12-07T18:41:00;6.10;1.00